createdAt,value
2023-03-20T00:02:05.032Z,354.91
2023-03-20T00:07:15.513Z,353.66
2023-03-20T00:13:02.757Z,353.86
2023-03-20T00:18:28.954Z,353.45
2023-03-20T00:23:24.296Z,353.14
2023-03-20T00:28:31.800Z,352.48
2023-03-20T00:33:39.529Z,352.36
2023-03-20T00:38:51.768Z,352.24
2023-03-20T00:43:59.550Z,351.91
2023-03-20T00:49:16.396Z,352.35
2023-03-20T00:54:19.993Z,352.15
2023-03-20T00:59:29.266Z,352.56
2023-03-20T01:04:41.589Z,353.11
2023-03-20T01:10:05.328Z,353.35
2023-03-20T01:15:17.889Z,353.08
2023-03-20T01:20:25.510Z,353.11
2023-03-20T01:25:33.419Z,353.49
2023-03-20T01:30:43.549Z,353.82
2023-03-20T01:35:55.858Z,353.69
2023-03-20T01:41:07.082Z,354.26
2023-03-20T01:46:14.949Z,354.62
2023-03-20T01:51:29.049Z,354.60
2023-03-20T01:56:36.606Z,354.38
2023-03-20T02:01:43.990Z,354.91
2023-03-20T02:06:51.452Z,355.11
2023-03-20T02:11:58.788Z,355.01
2023-03-20T02:17:06.154Z,354.86
2023-03-20T02:22:13.461Z,354.47
2023-03-20T02:27:20.629Z,354.39
2023-03-20T02:32:27.877Z,354.08
2023-03-20T02:37:35.235Z,354.77
2023-03-20T02:42:42.283Z,354.88
2023-03-20T02:47:49.464Z,354.32
2023-03-20T02:52:56.662Z,354.27
2023-03-20T02:58:03.932Z,353.29
2023-03-20T03:03:11.113Z,352.96
2023-03-20T03:08:18.291Z,352.97
2023-03-20T03:13:25.458Z,352.69
2023-03-20T03:18:32.642Z,352.13
2023-03-20T03:23:39.854Z,351.59
2023-03-20T03:28:47.111Z,351.29
2023-03-20T03:33:54.370Z,351.35
2023-03-20T03:39:01.619Z,351.16
2023-03-20T03:44:08.782Z,350.48
2023-03-20T03:49:15.958Z,349.76
2023-03-20T03:54:23.173Z,348.76
2023-03-20T03:59:30.371Z,348.79
2023-03-20T04:04:37.532Z,348.38
2023-03-20T04:09:44.844Z,348.39
2023-03-20T04:14:52.009Z,348.72
2023-03-20T04:19:59.310Z,348.22
2023-03-20T04:25:06.625Z,348.32
2023-03-20T04:30:13.991Z,348.27
2023-03-20T04:35:21.318Z,347.56
2023-03-20T04:40:28.749Z,347.27
2023-03-20T04:45:36.279Z,346.69
2023-03-20T04:50:43.346Z,345.86
2023-03-20T04:55:50.825Z,345.73
2023-03-20T05:00:58.329Z,345.56
2023-03-20T05:06:05.594Z,345.36
2023-03-20T05:11:12.975Z,345.85
2023-03-20T05:16:20.422Z,345.27
2023-03-20T05:21:27.620Z,345.14
2023-03-20T05:26:35.050Z,344.63
2023-03-20T05:31:42.199Z,344.44
2023-03-20T05:36:49.508Z,344.41
2023-03-20T05:41:57.041Z,344.30
2023-03-20T05:47:04.397Z,344.07
2023-03-20T05:52:11.794Z,343.84
2023-03-20T05:57:19.214Z,343.88
2023-03-20T06:02:26.715Z,343.65
2023-03-20T06:07:34.126Z,343.32
2023-03-20T06:12:41.636Z,343.26
2023-03-20T06:17:52.653Z,342.55
2023-03-20T06:23:00.007Z,342.43
2023-03-20T06:28:07.373Z,341.99
2023-03-20T06:33:14.902Z,341.46
2023-03-20T06:38:22.050Z,340.96
2023-03-20T06:43:29.579Z,341.05
2023-03-20T06:48:36.850Z,340.65
2023-03-20T06:53:44.232Z,340.65
2023-03-20T06:58:51.472Z,340.99
2023-03-20T07:03:58.814Z,340.91
2023-03-20T07:09:06.234Z,341.03
2023-03-20T07:14:13.584Z,340.63
2023-03-20T07:19:21.143Z,340.08
2023-03-20T07:24:28.482Z,339.67
2023-03-20T07:29:35.907Z,339.47
2023-03-20T07:34:43.300Z,339.44
2023-03-20T07:39:50.719Z,338.80
2023-03-20T07:44:58.192Z,338.49
2023-03-20T07:50:08.131Z,338.51
2023-03-20T07:55:12.747Z,338.30
2023-03-20T08:00:20.150Z,338.54
2023-03-20T08:05:27.399Z,338.88
2023-03-20T08:10:34.767Z,339.03
2023-03-20T08:15:42.270Z,339.57
2023-03-20T08:20:49.545Z,340.18
2023-03-20T08:25:57.153Z,339.74
2023-03-20T08:31:04.516Z,340.19
2023-03-20T08:36:11.824Z,341.13
2023-03-20T08:41:19.104Z,341.17
2023-03-20T08:46:26.422Z,341.61
2023-03-20T08:51:33.623Z,341.30
2023-03-20T08:56:40.922Z,340.57
2023-03-20T09:01:50.289Z,340.08
2023-03-20T09:06:55.485Z,339.93
2023-03-20T09:12:02.774Z,339.69
2023-03-20T09:17:10.125Z,339.11
2023-03-20T09:22:21.369Z,339.51
2023-03-20T09:27:28.722Z,340.19
2023-03-20T09:32:36.185Z,340.75
2023-03-20T09:37:43.408Z,340.21
2023-03-20T09:42:50.774Z,339.86
2023-03-20T09:47:58.207Z,341.08
2023-03-20T09:53:05.508Z,341.49
2023-03-20T09:58:12.875Z,342.02
2023-03-20T10:03:20.241Z,342.06
2023-03-20T10:08:27.419Z,342.59
2023-03-20T10:13:34.648Z,342.57
2023-03-20T10:18:41.912Z,342.58
2023-03-20T10:23:49.172Z,342.55
2023-03-20T10:28:56.323Z,342.67
2023-03-20T10:34:03.815Z,342.76
2023-03-20T10:39:11.156Z,343.04
2023-03-20T10:44:18.549Z,343.06
2023-03-20T10:49:26.118Z,343.17
2023-03-20T10:54:33.478Z,343.37
2023-03-20T10:59:40.762Z,343.75
2023-03-20T11:04:48.085Z,343.87
2023-03-20T11:09:55.411Z,343.82
2023-03-20T11:15:07.554Z,344.48
2023-03-20T11:20:14.873Z,344.26
2023-03-20T11:25:22.285Z,345.04
2023-03-20T11:30:29.654Z,344.48
2023-03-20T11:35:37.240Z,344.84
2023-03-20T11:40:44.613Z,345.13
2023-03-20T11:45:56.978Z,344.75
2023-03-20T11:51:04.579Z,345.56
2023-03-20T11:56:18.193Z,345.16
2023-03-20T12:01:25.910Z,346.03
2023-03-20T12:06:33.462Z,345.97
2023-03-20T12:11:41.343Z,345.86
2023-03-20T12:16:49.831Z,346.32
2023-03-20T12:21:57.785Z,346.34
2023-03-20T12:27:26.122Z,346.05
2023-03-20T12:32:29.492Z,345.92
2023-03-20T12:37:55.897Z,345.98
2023-03-20T12:43:07.418Z,346.50
2023-03-20T12:48:22.032Z,346.39
2023-03-20T12:53:30.594Z,347.06
2023-03-20T12:58:44.694Z,346.70
2023-03-20T13:04:27.397Z,347.00
2023-03-20T13:09:55.622Z,347.63
2023-03-20T13:14:57.866Z,347.42
2023-03-20T13:20:14.020Z,347.80
2023-03-20T13:25:16.396Z,347.46
2023-03-20T13:30:28.616Z,347.96
2023-03-20T13:35:43.075Z,348.51
2023-03-20T13:46:40.322Z,348.32
2023-03-20T13:47:33.849Z,348.52
2023-03-20T13:51:45.235Z,348.48
2023-03-20T13:57:05.482Z,348.60
2023-03-20T14:02:48.238Z,349.50
2023-03-20T14:08:01.828Z,349.36
2023-03-20T14:13:09.418Z,349.77
2023-03-20T14:23:38.259Z,351.17
2023-03-20T14:28:53.113Z,351.90
2023-03-20T14:33:58.623Z,352.40
2023-03-20T14:39:07.790Z,352.43
2023-03-20T14:44:15.261Z,353.28
2023-03-20T14:49:26.124Z,353.60
2023-03-20T14:54:34.570Z,353.55
2023-03-20T14:59:45.880Z,354.10
2023-03-20T15:04:54.067Z,354.71
2023-03-20T15:10:05.230Z,354.96
2023-03-20T15:15:12.653Z,355.46
2023-03-20T15:20:20.231Z,356.08
2023-03-20T15:25:27.815Z,356.79
2023-03-20T15:30:38.923Z,357.09
2023-03-20T15:35:55.131Z,356.61
2023-03-20T15:41:02.549Z,357.33
2023-03-20T15:46:19.070Z,357.36
2023-03-20T15:51:17.676Z,357.19
2023-03-20T15:56:25.089Z,357.33
2023-03-20T16:01:54.272Z,357.51
2023-03-20T16:06:45.428Z,357.36
2023-03-20T16:11:53.447Z,357.38
2023-03-20T16:17:01.151Z,357.21
2023-03-20T16:22:23.521Z,357.45
2023-03-20T16:27:30.840Z,357.69
2023-03-20T16:32:39.790Z,356.83
2023-03-20T16:37:47.309Z,357.37
2023-03-20T16:43:09.575Z,357.35
2023-03-20T16:48:18.763Z,356.54
2023-03-20T16:53:26.116Z,356.43
2023-03-20T16:58:33.310Z,356.46
2023-03-20T17:03:45.891Z,356.25
2023-03-20T17:08:53.253Z,355.72
2023-03-20T17:14:00.625Z,355.01
2023-03-20T17:19:08.057Z,354.69
2023-03-20T17:24:19.169Z,354.45
2023-03-20T17:29:26.585Z,354.08
2023-03-20T17:34:34.252Z,353.75
2023-03-20T17:39:41.732Z,353.27
2023-03-20T17:44:49.187Z,352.95
2023-03-20T17:49:56.266Z,352.83
2023-03-20T17:55:03.813Z,353.15
2023-03-20T18:00:11.126Z,353.20
2023-03-20T18:05:18.378Z,352.73
2023-03-20T18:10:25.551Z,353.46
2023-03-20T18:15:33.070Z,354.07
2023-03-20T18:20:40.637Z,354.60
2023-03-20T18:25:48.279Z,354.45
2023-03-20T18:30:55.894Z,354.56
2023-03-20T18:36:03.215Z,354.39
2023-03-20T18:41:10.710Z,354.58
2023-03-20T18:46:18.496Z,354.02
2023-03-20T18:51:27.078Z,353.33
2023-03-20T18:56:34.894Z,353.39
2023-03-20T19:01:42.375Z,353.39
2023-03-20T19:06:49.519Z,353.30
2023-03-20T19:11:57.015Z,353.14
2023-03-20T19:17:04.603Z,353.40
2023-03-20T19:22:22.691Z,353.79
2023-03-20T19:27:19.958Z,353.58
2023-03-20T19:32:27.522Z,353.09
2023-03-20T19:37:35.171Z,353.35
2023-03-20T19:43:01.051Z,352.90
2023-03-20T19:47:50.492Z,352.61
2023-03-20T19:52:58.103Z,351.94
2023-03-20T19:58:05.849Z,351.43
2023-03-20T20:03:13.638Z,351.26
2023-03-20T20:08:29.998Z,351.23
2023-03-20T20:13:28.379Z,351.04
2023-03-20T20:18:36.091Z,350.93
2023-03-20T20:23:43.593Z,350.48
2023-03-20T20:28:51.225Z,349.79
2023-03-20T20:34:36.790Z,349.67
2023-03-20T20:39:06.809Z,349.76
2023-03-20T20:44:17.292Z,349.97
2023-03-20T20:49:21.888Z,349.93
2023-03-20T20:54:29.541Z,349.38
2023-03-20T20:59:36.963Z,349.86
2023-03-20T21:04:44.420Z,350.47
2023-03-20T21:09:51.751Z,350.48
2023-03-20T21:14:59.045Z,351.36
2023-03-20T21:20:06.291Z,352.68
2023-03-20T21:25:15.343Z,353.23
2023-03-20T21:30:21.494Z,352.98
2023-03-20T21:35:28.246Z,353.34
2023-03-20T21:40:35.439Z,353.12
2023-03-20T21:51:26.253Z,353.72
2023-03-20T21:56:40.064Z,353.92
2023-03-20T22:07:09.613Z,354.31
2023-03-20T22:37:39.382Z,354.26
2023-03-20T22:47:09.606Z,354.63
2023-03-20T22:52:28.969Z,355.04
2023-03-20T22:57:29.029Z,355.41
2023-03-20T23:02:31.227Z,356.04
2023-03-20T23:07:38.501Z,356.97
2023-03-20T23:12:45.759Z,356.99
2023-03-20T23:17:53.006Z,356.97
2023-03-20T23:23:00.237Z,357.44
2023-03-20T23:28:07.504Z,356.81
2023-03-20T23:33:14.728Z,356.81
2023-03-20T23:38:21.933Z,357.20
2023-03-20T23:43:29.179Z,357.87
2023-03-20T23:48:36.392Z,358.43
2023-03-20T23:53:43.556Z,358.43
2023-03-20T23:58:59.372Z,359.18
